Home   Weather   Fairfield Park   Past weeks
Flag for USA

Past Weather in Fairfield Park, Delaware, USA — Yesterday and Last 2 Weeks

Currently: 62 °F. Light rain. Fog. (Weather station: New Castle County Airport, USA). See more current weather

Past Weather in Fairfield Park — Graph

°F

Fairfield Park Temperature Yesterday

Maximum temperature yesterday: 70 °F (at 4:51 pm)
Minimum temperature yesterday: 51 °F (at 2:51 am)
Average temperature yesterday: 57 °F

High & Low Weather Summary for the Past Weeks

 TemperatureHumidityPressure
High71 °F (Apr 6, 4:51 pm)97% (Mar 28, 8:58 am)30.44 "Hg (Mar 28, 8:58 am)
Low27 °F (Apr 3, 3:51 am)22% (Apr 7, 2:51 pm)29.49 "Hg (Mar 28, 4:51 pm)
Average53 °F63%30.02 "Hg
* Reported Mar 27 11:51 am — Apr 11 11:31 am, Fairfield Park. Weather by CustomWeather, © 2021

Note: Actual official high and low records may vary slightly from our data, if they occured in-between our weather recording intervals... More about our weather records

Fairfield Park Weather History for the Previous 24 Hours

Scroll right to see more
 ConditionsComfort  
Time TempWeatherWind HumidityBarometerVisibility
11:31 am
Sun, Apr 11
63 °FLight rain. Fog.10 mph93%29.52 "Hg2 mi
10:51 am63 °FMostly cloudy.8 mph90%29.52 "Hg10 mi
9:51 am60 °FLow clouds.7 mph93%29.54 "Hg10 mi
9:02 am60 °FMostly cloudy.12 mph93%29.55 "Hg10 mi
8:51 am59 °FLow clouds.10 mph96%29.55 "Hg10 mi
7:51 am59 °FLight rain. Mostly cloudy.9 mph93%29.58 "Hg8 mi
7:35 am58 °FRain. Fog.8 mph97%29.58 "Hg1 mi
7:20 am58 °FHeavy rain. Fog.12 mph97%29.58 "Hg2 mi
7:13 am58 °FRain. Fog.12 mph97%29.59 "Hg2 mi
6:51 am58 °FHeavy rain. Fog.13 mph97%29.59 "Hg3 mi
6:21 am58 °FRain. Fog.12 mph97%29.61 "Hg5 mi
5:51 am58 °FLight rain. Fog.9 mph97%29.62 "Hg6 mi
5:07 am59 °FLight rain. Fog.7 mph96%29.63 "Hg4 mi
4:06 am59 °FRain. Fog.7 mph96%29.66 "Hg3 mi
3:56 am59 °FRain. Fog.7 mph96%29.66 "Hg2 mi
3:37 am59 °FLight rain. Fog.5 mph96%29.68 "Hg2 mi
2:51 am59 °FFog.5 mph96%29.67 "Hg6 mi
1:51 am59 °FLow clouds.3 mph93%29.70 "Hg7 mi
1:22 am58 °FLow clouds.5 mph93%29.72 "Hg8 mi
12:51 am57 °FPassing clouds.5 mph93%29.73 "Hg8 mi
12:36 am57 °FPassing clouds.5 mph93%29.75 "Hg8 mi
12:02 am57 °FPassing clouds.5 mph93%29.77 "Hg8 mi
11:51 pm
Sat, Apr 10
57 °FPassing clouds.No wind96%29.77 "Hg9 mi
10:51 pm58 °FClear.7 mph90%29.77 "Hg10 mi
9:51 pm59 °FClear.7 mph87%29.79 "Hg10 mi
8:51 pm58 °FClear.9 mph90%29.80 "Hg10 mi
7:51 pm62 °FClear.13 mph75%29.80 "Hg10 mi
6:51 pm68 °FSunny.5 mph61%29.82 "Hg10 mi
5:51 pm70 °FSunny.3 mph57%29.85 "Hg10 mi
4:51 pm70 °FSunny.5 mph59%29.87 "Hg10 mi
3:51 pm69 °FPassing clouds.6 mph66%29.90 "Hg10 mi
2:51 pm66 °FScattered clouds.6 mph78%29.93 "Hg10 mi
2:01 pm63 °FOvercast.5 mph84%29.95 "Hg10 mi
12:51 pm60 °FLow clouds.6 mph83%29.97 "Hg9 mi
Weather by CustomWeather, © 2021

See weather overview